sensor_id;sensor_type;location;lat;lon;timestamp;temperature;humidity
16823;DHT22;8528;49.976;11.858;2023-11-19T00:00:09;2.60;99.90
16823;DHT22;8528;49.976;11.858;2023-11-19T00:02:41;2.60;99.90
16823;DHT22;8528;49.976;11.858;2023-11-19T00:05:09;2.60;99.90
16823;DHT22;8528;49.976;11.858;2023-11-19T00:07:38;2.60;99.90
16823;DHT22;8528;49.976;11.858;2023-11-19T00:10:11;2.60;99.90
16823;DHT22;8528;49.976;11.858;2023-11-19T00:12:59;2.60;99.90
16823;DHT22;8528;49.976;11.858;2023-11-19T00:15:25;2.60;99.90
16823;DHT22;8528;49.976;11.858;2023-11-19T00:17:52;2.70;99.90
16823;DHT22;8528;49.976;11.858;2023-11-19T00:20:20;2.70;99.90
16823;DHT22;8528;49.976;11.858;2023-11-19T00:22:49;2.70;99.90
16823;DHT22;8528;49.976;11.858;2023-11-19T00:25:19;2.70;99.90
16823;DHT22;8528;49.976;11.858;2023-11-19T00:27:47;2.70;99.90
16823;DHT22;8528;49.976;11.858;2023-11-19T00:30:14;2.70;99.90
16823;DHT22;8528;49.976;11.858;2023-11-19T00:32:41;2.70;99.90
16823;DHT22;8528;49.976;11.858;2023-11-19T00:35:09;2.70;99.90
16823;DHT22;8528;49.976;11.858;2023-11-19T00:37:42;2.70;99.90
16823;DHT22;8528;49.976;11.858;2023-11-19T00:40:10;2.70;99.90
16823;DHT22;8528;49.976;11.858;2023-11-19T00:42:38;2.70;99.90
16823;DHT22;8528;49.976;11.858;2023-11-19T00:45:05;2.70;99.90
16823;DHT22;8528;49.976;11.858;2023-11-19T00:47:36;2.70;99.90
16823;DHT22;8528;49.976;11.858;2023-11-19T00:50:03;2.70;99.90
16823;DHT22;8528;49.976;11.858;2023-11-19T00:52:30;2.70;99.90
16823;DHT22;8528;49.976;11.858;2023-11-19T00:54:57;2.70;99.90
16823;DHT22;8528;49.976;11.858;2023-11-19T00:57:24;2.70;99.90
16823;DHT22;8528;49.976;11.858;2023-11-19T00:59:53;2.70;99.90
16823;DHT22;8528;49.976;11.858;2023-11-19T01:02:20;2.80;99.90
16823;DHT22;8528;49.976;11.858;2023-11-19T01:04:47;2.80;99.90
16823;DHT22;8528;49.976;11.858;2023-11-19T01:07:14;2.80;99.90
16823;DHT22;8528;49.976;11.858;2023-11-19T01:09:42;2.80;99.90
16823;DHT22;8528;49.976;11.858;2023-11-19T01:12:09;2.80;99.90
16823;DHT22;8528;49.976;11.858;2023-11-19T01:14:37;2.80;99.90
16823;DHT22;8528;49.976;11.858;2023-11-19T01:17:04;2.80;99.90
16823;DHT22;8528;49.976;11.858;2023-11-19T01:19:32;2.80;99.90
16823;DHT22;8528;49.976;11.858;2023-11-19T01:21:59;2.90;99.90
16823;DHT22;8528;49.976;11.858;2023-11-19T01:24:26;2.90;99.90
16823;DHT22;8528;49.976;11.858;2023-11-19T01:26:55;2.90;99.90
16823;DHT22;8528;49.976;11.858;2023-11-19T01:29:22;2.90;99.90
16823;DHT22;8528;49.976;11.858;2023-11-19T01:31:49;2.90;99.90
16823;DHT22;8528;49.976;11.858;2023-11-19T01:34:17;2.90;99.90
16823;DHT22;8528;49.976;11.858;2023-11-19T01:36:44;3.00;99.90
16823;DHT22;8528;49.976;11.858;2023-11-19T01:39:13;3.00;99.90
16823;DHT22;8528;49.976;11.858;2023-11-19T01:41:43;3.00;99.90
16823;DHT22;8528;49.976;11.858;2023-11-19T01:44:10;3.00;99.90
16823;DHT22;8528;49.976;11.858;2023-11-19T01:46:40;3.00;99.90
16823;DHT22;8528;49.976;11.858;2023-11-19T01:49:09;3.00;99.90
16823;DHT22;8528;49.976;11.858;2023-11-19T01:51:36;3.00;99.90
16823;DHT22;8528;49.976;11.858;2023-11-19T01:54:03;3.10;99.90
16823;DHT22;8528;49.976;11.858;2023-11-19T01:56:30;3.10;99.90
16823;DHT22;8528;49.976;11.858;2023-11-19T01:58:58;3.20;99.90
16823;DHT22;8528;49.976;11.858;2023-11-19T02:01:26;3.20;99.90
16823;DHT22;8528;49.976;11.858;2023-11-19T02:03:53;3.10;99.90
16823;DHT22;8528;49.976;11.858;2023-11-19T02:06:21;3.10;99.90
16823;DHT22;8528;49.976;11.858;2023-11-19T02:08:48;3.20;99.90
16823;DHT22;8528;49.976;11.858;2023-11-19T02:11:16;3.20;99.90
16823;DHT22;8528;49.976;11.858;2023-11-19T02:13:43;3.20;99.90
16823;DHT22;8528;49.976;11.858;2023-11-19T02:16:10;3.20;99.90
16823;DHT22;8528;49.976;11.858;2023-11-19T02:18:38;3.20;99.90
16823;DHT22;8528;49.976;11.858;2023-11-19T02:21:05;3.30;99.90
16823;DHT22;8528;49.976;11.858;2023-11-19T02:23:33;3.30;99.90
16823;DHT22;8528;49.976;11.858;2023-11-19T02:26:05;3.30;99.90
16823;DHT22;8528;49.976;11.858;2023-11-19T02:28:36;3.30;99.90
16823;DHT22;8528;49.976;11.858;2023-11-19T02:31:04;3.30;99.90
16823;DHT22;8528;49.976;11.858;2023-11-19T02:33:38;3.40;99.90
16823;DHT22;8528;49.976;11.858;2023-11-19T02:36:06;3.40;99.90
16823;DHT22;8528;49.976;11.858;2023-11-19T02:38:34;3.40;99.90
16823;DHT22;8528;49.976;11.858;2023-11-19T02:41:04;3.40;99.90
16823;DHT22;8528;49.976;11.858;2023-11-19T02:43:34;3.40;99.90
16823;DHT22;8528;49.976;11.858;2023-11-19T02:46:05;3.40;99.90
16823;DHT22;8528;49.976;11.858;2023-11-19T02:48:38;3.40;99.90
16823;DHT22;8528;49.976;11.858;2023-11-19T02:51:05;3.40;99.90
16823;DHT22;8528;49.976;11.858;2023-11-19T02:53:36;3.50;99.90
16823;DHT22;8528;49.976;11.858;2023-11-19T02:56:07;3.50;99.90
16823;DHT22;8528;49.976;11.858;2023-11-19T02:58:46;3.50;99.90
16823;DHT22;8528;49.976;11.858;2023-11-19T03:01:14;3.50;99.90
16823;DHT22;8528;49.976;11.858;2023-11-19T03:03:51;3.60;99.90
16823;DHT22;8528;49.976;11.858;2023-11-19T03:06:24;3.50;99.90
16823;DHT22;8528;49.976;11.858;2023-11-19T03:08:51;3.60;99.90
16823;DHT22;8528;49.976;11.858;2023-11-19T03:11:18;3.60;99.90
16823;DHT22;8528;49.976;11.858;2023-11-19T03:13:46;3.60;99.90
16823;DHT22;8528;49.976;11.858;2023-11-19T03:16:14;3.60;99.90
16823;DHT22;8528;49.976;11.858;2023-11-19T03:18:41;3.70;99.90
16823;DHT22;8528;49.976;11.858;2023-11-19T03:21:08;3.70;99.90
16823;DHT22;8528;49.976;11.858;2023-11-19T03:23:35;3.60;99.90
16823;DHT22;8528;49.976;11.858;2023-11-19T03:26:03;3.60;99.90
16823;DHT22;8528;49.976;11.858;2023-11-19T03:28:32;3.70;99.90
16823;DHT22;8528;49.976;11.858;2023-11-19T03:30:59;3.70;99.90
16823;DHT22;8528;49.976;11.858;2023-11-19T03:33:26;3.60;99.90
16823;DHT22;8528;49.976;11.858;2023-11-19T03:35:56;3.60;99.90
16823;DHT22;8528;49.976;11.858;2023-11-19T03:38:24;3.60;99.90
16823;DHT22;8528;49.976;11.858;2023-11-19T03:40:53;3.60;99.90
16823;DHT22;8528;49.976;11.858;2023-11-19T03:43:20;3.70;99.90
16823;DHT22;8528;49.976;11.858;2023-11-19T03:45:48;3.70;99.90
16823;DHT22;8528;49.976;11.858;2023-11-19T03:48:15;3.60;99.90
16823;DHT22;8528;49.976;11.858;2023-11-19T03:50:43;3.60;99.90
16823;DHT22;8528;49.976;11.858;2023-11-19T03:53:11;3.60;99.90
16823;DHT22;8528;49.976;11.858;2023-11-19T03:55:38;3.60;99.90
16823;DHT22;8528;49.976;11.858;2023-11-19T03:58:05;3.60;99.90
16823;DHT22;8528;49.976;11.858;2023-11-19T04:00:32;3.60;99.90
16823;DHT22;8528;49.976;11.858;2023-11-19T04:02:59;3.60;99.90
16823;DHT22;8528;49.976;11.858;2023-11-19T04:05:26;3.60;99.90
16823;DHT22;8528;49.976;11.858;2023-11-19T04:07:53;3.60;99.90
16823;DHT22;8528;49.976;11.858;2023-11-19T04:10:20;3.60;99.90
16823;DHT22;8528;49.976;11.858;2023-11-19T04:12:50;3.70;99.90
16823;DHT22;8528;49.976;11.858;2023-11-19T04:15:17;3.60;99.90
16823;DHT22;8528;49.976;11.858;2023-11-19T04:17:44;3.60;99.90
16823;DHT22;8528;49.976;11.858;2023-11-19T04:20:11;3.60;99.90
16823;DHT22;8528;49.976;11.858;2023-11-19T04:22:41;3.60;99.90
16823;DHT22;8528;49.976;11.858;2023-11-19T04:25:08;3.70;99.90
16823;DHT22;8528;49.976;11.858;2023-11-19T04:27:36;3.70;99.90
16823;DHT22;8528;49.976;11.858;2023-11-19T04:30:03;3.70;99.90
16823;DHT22;8528;49.976;11.858;2023-11-19T04:32:31;3.70;99.90
16823;DHT22;8528;49.976;11.858;2023-11-19T04:34:58;3.70;99.90
16823;DHT22;8528;49.976;11.858;2023-11-19T04:37:26;3.70;99.90
16823;DHT22;8528;49.976;11.858;2023-11-19T04:39:52;3.70;99.90
16823;DHT22;8528;49.976;11.858;2023-11-19T04:42:22;3.70;99.90
16823;DHT22;8528;49.976;11.858;2023-11-19T04:44:49;3.70;99.90
16823;DHT22;8528;49.976;11.858;2023-11-19T04:47:16;3.80;99.90
16823;DHT22;8528;49.976;11.858;2023-11-19T04:49:43;3.80;99.90
16823;DHT22;8528;49.976;11.858;2023-11-19T04:52:10;3.80;99.90
16823;DHT22;8528;49.976;11.858;2023-11-19T04:54:42;3.80;99.90
16823;DHT22;8528;49.976;11.858;2023-11-19T04:57:12;3.80;99.90
16823;DHT22;8528;49.976;11.858;2023-11-19T04:59:40;3.90;99.90
16823;DHT22;8528;49.976;11.858;2023-11-19T05:02:08;3.90;99.90
16823;DHT22;8528;49.976;11.858;2023-11-19T05:04:42;3.90;99.90
16823;DHT22;8528;49.976;11.858;2023-11-19T05:07:10;3.90;99.90
16823;DHT22;8528;49.976;11.858;2023-11-19T05:09:37;3.90;99.90
16823;DHT22;8528;49.976;11.858;2023-11-19T05:12:05;4.00;99.90
16823;DHT22;8528;49.976;11.858;2023-11-19T05:14:31;4.00;99.90
16823;DHT22;8528;49.976;11.858;2023-11-19T05:16:58;4.00;99.90
16823;DHT22;8528;49.976;11.858;2023-11-19T05:19:25;4.00;99.90
16823;DHT22;8528;49.976;11.858;2023-11-19T05:21:52;4.00;99.90
16823;DHT22;8528;49.976;11.858;2023-11-19T05:24:19;4.10;99.90
16823;DHT22;8528;49.976;11.858;2023-11-19T05:26:46;4.10;99.90
16823;DHT22;8528;49.976;11.858;2023-11-19T05:29:13;4.10;99.90
16823;DHT22;8528;49.976;11.858;2023-11-19T05:31:40;4.00;99.90
16823;DHT22;8528;49.976;11.858;2023-11-19T05:34:10;4.00;99.90
16823;DHT22;8528;49.976;11.858;2023-11-19T05:36:37;4.00;99.90
16823;DHT22;8528;49.976;11.858;2023-11-19T05:39:04;4.00;99.90
16823;DHT22;8528;49.976;11.858;2023-11-19T05:41:31;4.00;99.90
16823;DHT22;8528;49.976;11.858;2023-11-19T05:43:58;4.00;99.90
16823;DHT22;8528;49.976;11.858;2023-11-19T05:46:25;4.00;99.90
16823;DHT22;8528;49.976;11.858;2023-11-19T05:48:53;4.00;99.90
16823;DHT22;8528;49.976;11.858;2023-11-19T05:51:21;4.00;99.90
16823;DHT22;8528;49.976;11.858;2023-11-19T05:53:48;4.00;99.90
16823;DHT22;8528;49.976;11.858;2023-11-19T05:56:17;4.10;99.90
16823;DHT22;8528;49.976;11.858;2023-11-19T05:58:48;4.10;99.90
16823;DHT22;8528;49.976;11.858;2023-11-19T06:01:15;4.00;99.90
16823;DHT22;8528;49.976;11.858;2023-11-19T06:03:43;4.00;99.90
16823;DHT22;8528;49.976;11.858;2023-11-19T06:06:10;4.00;99.90
16823;DHT22;8528;49.976;11.858;2023-11-19T06:08:38;4.10;99.90
16823;DHT22;8528;49.976;11.858;2023-11-19T06:11:05;4.10;99.90
16823;DHT22;8528;49.976;11.858;2023-11-19T06:13:32;4.10;99.90
16823;DHT22;8528;49.976;11.858;2023-11-19T06:15:59;4.10;99.90
16823;DHT22;8528;49.976;11.858;2023-11-19T06:18:26;4.20;99.90
16823;DHT22;8528;49.976;11.858;2023-11-19T06:20:54;4.30;99.90
16823;DHT22;8528;49.976;11.858;2023-11-19T06:23:21;4.30;99.90
16823;DHT22;8528;49.976;11.858;2023-11-19T06:25:48;4.30;99.90
16823;DHT22;8528;49.976;11.858;2023-11-19T06:28:15;4.30;99.90
16823;DHT22;8528;49.976;11.858;2023-11-19T06:30:42;4.30;99.90
16823;DHT22;8528;49.976;11.858;2023-11-19T06:33:13;4.30;99.90
16823;DHT22;8528;49.976;11.858;2023-11-19T06:35:40;4.30;99.90
16823;DHT22;8528;49.976;11.858;2023-11-19T06:38:07;4.30;99.90
16823;DHT22;8528;49.976;11.858;2023-11-19T06:40:34;4.40;99.90
16823;DHT22;8528;49.976;11.858;2023-11-19T06:43:04;4.40;99.90
16823;DHT22;8528;49.976;11.858;2023-11-19T06:45:31;4.40;99.90
16823;DHT22;8528;49.976;11.858;2023-11-19T06:48:00;4.40;99.90
16823;DHT22;8528;49.976;11.858;2023-11-19T06:50:28;4.40;99.90
16823;DHT22;8528;49.976;11.858;2023-11-19T06:52:55;4.40;99.90
16823;DHT22;8528;49.976;11.858;2023-11-19T06:55:22;4.40;99.90
16823;DHT22;8528;49.976;11.858;2023-11-19T06:57:49;4.50;99.90
16823;DHT22;8528;49.976;11.858;2023-11-19T07:00:16;4.50;99.90
16823;DHT22;8528;49.976;11.858;2023-11-19T07:02:43;4.50;99.90
16823;DHT22;8528;49.976;11.858;2023-11-19T07:05:11;4.50;99.90
16823;DHT22;8528;49.976;11.858;2023-11-19T07:07:39;4.60;99.90
16823;DHT22;8528;49.976;11.858;2023-11-19T07:10:07;4.80;99.90
16823;DHT22;8528;49.976;11.858;2023-11-19T07:12:36;4.90;99.90
16823;DHT22;8528;49.976;11.858;2023-11-19T07:15:04;5.20;99.90
16823;DHT22;8528;49.976;11.858;2023-11-19T07:17:31;5.40;99.90
16823;DHT22;8528;49.976;11.858;2023-11-19T07:19:58;5.50;99.90
16823;DHT22;8528;49.976;11.858;2023-11-19T07:22:26;5.60;99.90
16823;DHT22;8528;49.976;11.858;2023-11-19T07:24:56;5.70;99.90
16823;DHT22;8528;49.976;11.858;2023-11-19T07:27:22;5.80;99.90
16823;DHT22;8528;49.976;11.858;2023-11-19T07:29:51;5.90;99.90
16823;DHT22;8528;49.976;11.858;2023-11-19T07:32:18;6.00;99.90
16823;DHT22;8528;49.976;11.858;2023-11-19T07:34:44;6.10;99.90
16823;DHT22;8528;49.976;11.858;2023-11-19T07:37:11;6.20;99.90
16823;DHT22;8528;49.976;11.858;2023-11-19T07:39:39;6.20;99.90
16823;DHT22;8528;49.976;11.858;2023-11-19T07:42:08;6.20;99.90
16823;DHT22;8528;49.976;11.858;2023-11-19T07:44:35;6.30;99.90
16823;DHT22;8528;49.976;11.858;2023-11-19T07:47:03;6.30;99.90
16823;DHT22;8528;49.976;11.858;2023-11-19T07:49:30;6.40;99.90
16823;DHT22;8528;49.976;11.858;2023-11-19T07:51:58;6.40;99.90
16823;DHT22;8528;49.976;11.858;2023-11-19T07:54:24;6.40;99.90
16823;DHT22;8528;49.976;11.858;2023-11-19T07:56:51;6.50;99.90
16823;DHT22;8528;49.976;11.858;2023-11-19T07:59:18;6.50;99.90
16823;DHT22;8528;49.976;11.858;2023-11-19T08:01:45;6.50;99.90
16823;DHT22;8528;49.976;11.858;2023-11-19T08:04:12;6.60;99.90
16823;DHT22;8528;49.976;11.858;2023-11-19T08:06:40;6.60;99.90
16823;DHT22;8528;49.976;11.858;2023-11-19T08:09:06;6.60;99.90
16823;DHT22;8528;49.976;11.858;2023-11-19T08:11:33;6.70;99.90
16823;DHT22;8528;49.976;11.858;2023-11-19T08:14:00;6.80;99.90
16823;DHT22;8528;49.976;11.858;2023-11-19T08:16:27;6.80;99.90
16823;DHT22;8528;49.976;11.858;2023-11-19T08:18:54;6.90;99.90
16823;DHT22;8528;49.976;11.858;2023-11-19T08:21:21;6.90;99.90
16823;DHT22;8528;49.976;11.858;2023-11-19T08:23:49;6.90;99.90
16823;DHT22;8528;49.976;11.858;2023-11-19T08:26:16;7.00;99.90
16823;DHT22;8528;49.976;11.858;2023-11-19T08:28:47;7.00;99.90
16823;DHT22;8528;49.976;11.858;2023-11-19T08:31:14;7.10;99.90
16823;DHT22;8528;49.976;11.858;2023-11-19T08:33:41;7.20;99.90
16823;DHT22;8528;49.976;11.858;2023-11-19T08:36:08;7.40;99.90
16823;DHT22;8528;49.976;11.858;2023-11-19T08:38:35;7.40;99.90
16823;DHT22;8528;49.976;11.858;2023-11-19T08:41:03;7.40;99.90
16823;DHT22;8528;49.976;11.858;2023-11-19T08:43:29;7.50;99.90
16823;DHT22;8528;49.976;11.858;2023-11-19T08:45:58;7.60;99.90
16823;DHT22;8528;49.976;11.858;2023-11-19T08:48:25;7.70;99.90
16823;DHT22;8528;49.976;11.858;2023-11-19T08:50:52;7.80;99.90
16823;DHT22;8528;49.976;11.858;2023-11-19T08:53:19;7.90;99.90
16823;DHT22;8528;49.976;11.858;2023-11-19T08:55:46;8.10;99.90
16823;DHT22;8528;49.976;11.858;2023-11-19T08:58:13;8.30;99.90
16823;DHT22;8528;49.976;11.858;2023-11-19T09:00:40;8.30;99.90
16823;DHT22;8528;49.976;11.858;2023-11-19T09:03:07;8.40;99.90
16823;DHT22;8528;49.976;11.858;2023-11-19T09:05:36;8.50;99.90
16823;DHT22;8528;49.976;11.858;2023-11-19T09:08:04;8.50;99.90
16823;DHT22;8528;49.976;11.858;2023-11-19T09:10:31;8.50;99.90
16823;DHT22;8528;49.976;11.858;2023-11-19T09:12:58;8.50;99.90
16823;DHT22;8528;49.976;11.858;2023-11-19T09:15:25;8.60;99.90
16823;DHT22;8528;49.976;11.858;2023-11-19T09:17:51;8.70;99.90
16823;DHT22;8528;49.976;11.858;2023-11-19T09:20:18;8.90;99.90
16823;DHT22;8528;49.976;11.858;2023-11-19T09:22:45;9.10;99.90
16823;DHT22;8528;49.976;11.858;2023-11-19T09:25:12;9.50;99.90
16823;DHT22;8528;49.976;11.858;2023-11-19T09:27:44;10.00;99.90
16823;DHT22;8528;49.976;11.858;2023-11-19T09:30:11;10.00;99.90
16823;DHT22;8528;49.976;11.858;2023-11-19T09:32:39;9.80;99.90
16823;DHT22;8528;49.976;11.858;2023-11-19T09:35:08;9.50;99.90
16823;DHT22;8528;49.976;11.858;2023-11-19T09:37:35;9.30;99.90
16823;DHT22;8528;49.976;11.858;2023-11-19T09:40:02;9.00;99.90
16823;DHT22;8528;49.976;11.858;2023-11-19T09:42:29;9.00;99.90
16823;DHT22;8528;49.976;11.858;2023-11-19T09:44:59;8.90;99.90
16823;DHT22;8528;49.976;11.858;2023-11-19T09:47:26;8.90;99.90
16823;DHT22;8528;49.976;11.858;2023-11-19T09:49:54;9.00;99.90
16823;DHT22;8528;49.976;11.858;2023-11-19T09:52:25;9.20;99.90
16823;DHT22;8528;49.976;11.858;2023-11-19T09:54:51;9.40;99.90
16823;DHT22;8528;49.976;11.858;2023-11-19T09:57:18;9.70;99.90
16823;DHT22;8528;49.976;11.858;2023-11-19T09:59:46;10.00;99.90
16823;DHT22;8528;49.976;11.858;2023-11-19T10:02:14;10.20;99.90
16823;DHT22;8528;49.976;11.858;2023-11-19T10:04:42;10.50;99.90
16823;DHT22;8528;49.976;11.858;2023-11-19T10:07:11;10.60;99.90
16823;DHT22;8528;49.976;11.858;2023-11-19T10:09:37;10.50;99.90
16823;DHT22;8528;49.976;11.858;2023-11-19T10:12:04;10.50;99.90
16823;DHT22;8528;49.976;11.858;2023-11-19T10:14:32;10.60;99.90
16823;DHT22;8528;49.976;11.858;2023-11-19T10:17:03;10.70;99.90
16823;DHT22;8528;49.976;11.858;2023-11-19T10:19:32;10.60;99.90
16823;DHT22;8528;49.976;11.858;2023-11-19T10:22:04;10.90;99.90
16823;DHT22;8528;49.976;11.858;2023-11-19T10:24:32;11.10;99.90
16823;DHT22;8528;49.976;11.858;2023-11-19T10:27:02;11.40;99.90
16823;DHT22;8528;49.976;11.858;2023-11-19T10:29:30;11.20;99.90
16823;DHT22;8528;49.976;11.858;2023-11-19T10:31:58;10.90;99.90
16823;DHT22;8528;49.976;11.858;2023-11-19T10:34:45;10.60;99.90
16823;DHT22;8528;49.976;11.858;2023-11-19T10:37:28;10.40;99.90
16823;DHT22;8528;49.976;11.858;2023-11-19T10:39:59;10.20;99.90
16823;DHT22;8528;49.976;11.858;2023-11-19T10:42:26;10.10;99.90
16823;DHT22;8528;49.976;11.858;2023-11-19T10:44:53;9.90;99.90
16823;DHT22;8528;49.976;11.858;2023-11-19T10:47:20;9.80;99.90
16823;DHT22;8528;49.976;11.858;2023-11-19T10:50:05;9.70;99.90
16823;DHT22;8528;49.976;11.858;2023-11-19T10:52:33;9.60;99.90
16823;DHT22;8528;49.976;11.858;2023-11-19T10:55:00;9.60;99.90
16823;DHT22;8528;49.976;11.858;2023-11-19T10:57:30;9.50;99.90
16823;DHT22;8528;49.976;11.858;2023-11-19T11:00:01;9.60;99.90
16823;DHT22;8528;49.976;11.858;2023-11-19T11:02:30;9.50;99.90
16823;DHT22;8528;49.976;11.858;2023-11-19T11:05:02;9.60;99.90
16823;DHT22;8528;49.976;11.858;2023-11-19T11:07:31;9.60;99.90
16823;DHT22;8528;49.976;11.858;2023-11-19T11:10:07;9.60;99.90
16823;DHT22;8528;49.976;11.858;2023-11-19T11:12:36;9.60;99.90
16823;DHT22;8528;49.976;11.858;2023-11-19T11:15:05;9.50;99.90
16823;DHT22;8528;49.976;11.858;2023-11-19T11:17:33;9.50;99.90
16823;DHT22;8528;49.976;11.858;2023-11-19T11:20:01;9.40;99.90
16823;DHT22;8528;49.976;11.858;2023-11-19T11:25:57;9.20;99.90
16823;DHT22;8528;49.976;11.858;2023-11-19T11:28:21;9.20;99.90
16823;DHT22;8528;49.976;11.858;2023-11-19T11:36:57;9.10;99.90
16823;DHT22;8528;49.976;11.858;2023-11-19T11:39:27;9.10;99.90
16823;DHT22;8528;49.976;11.858;2023-11-19T11:42:30;9.00;99.90
16823;DHT22;8528;49.976;11.858;2023-11-19T11:45:19;9.00;99.90
16823;DHT22;8528;49.976;11.858;2023-11-19T11:48:10;9.00;99.90
16823;DHT22;8528;49.976;11.858;2023-11-19T11:50:54;9.00;99.90
16823;DHT22;8528;49.976;11.858;2023-11-19T11:53:23;9.00;99.90
16823;DHT22;8528;49.976;11.858;2023-11-19T11:58:25;9.30;99.90
16823;DHT22;8528;49.976;11.858;2023-11-19T12:00:52;9.70;99.90
16823;DHT22;8528;49.976;11.858;2023-11-19T12:03:22;10.00;99.90
16823;DHT22;8528;49.976;11.858;2023-11-19T12:05:49;10.00;99.90
16823;DHT22;8528;49.976;11.858;2023-11-19T12:08:22;9.90;99.90
16823;DHT22;8528;49.976;11.858;2023-11-19T12:10:54;9.80;99.90
16823;DHT22;8528;49.976;11.858;2023-11-19T12:13:42;9.70;99.90
16823;DHT22;8528;49.976;11.858;2023-11-19T12:16:09;9.70;99.90
16823;DHT22;8528;49.976;11.858;2023-11-19T12:18:39;9.80;99.90
16823;DHT22;8528;49.976;11.858;2023-11-19T12:21:07;10.00;99.90
16823;DHT22;8528;49.976;11.858;2023-11-19T12:23:44;10.10;99.90
16823;DHT22;8528;49.976;11.858;2023-11-19T12:26:34;10.00;99.90
16823;DHT22;8528;49.976;11.858;2023-11-19T12:29:02;9.90;99.90
16823;DHT22;8528;49.976;11.858;2023-11-19T12:31:35;9.80;99.90
16823;DHT22;8528;49.976;11.858;2023-11-19T12:34:05;9.70;99.90
16823;DHT22;8528;49.976;11.858;2023-11-19T12:36:33;9.70;99.90
16823;DHT22;8528;49.976;11.858;2023-11-19T12:39:00;9.60;99.90
16823;DHT22;8528;49.976;11.858;2023-11-19T12:41:27;9.50;99.90
16823;DHT22;8528;49.976;11.858;2023-11-19T12:44:09;9.50;99.90
16823;DHT22;8528;49.976;11.858;2023-11-19T12:46:36;9.60;99.90
16823;DHT22;8528;49.976;11.858;2023-11-19T12:49:02;9.70;99.90
16823;DHT22;8528;49.976;11.858;2023-11-19T12:51:32;9.90;99.90
16823;DHT22;8528;49.976;11.858;2023-11-19T12:54:00;10.00;99.90
16823;DHT22;8528;49.976;11.858;2023-11-19T12:56:27;10.00;99.90
16823;DHT22;8528;49.976;11.858;2023-11-19T12:58:53;9.80;99.90
16823;DHT22;8528;49.976;11.858;2023-11-19T13:01:21;9.70;99.90
16823;DHT22;8528;49.976;11.858;2023-11-19T13:03:48;9.60;99.90
16823;DHT22;8528;49.976;11.858;2023-11-19T13:06:19;9.50;99.90
16823;DHT22;8528;49.976;11.858;2023-11-19T13:08:49;9.50;99.90
16823;DHT22;8528;49.976;11.858;2023-11-19T13:11:35;9.40;99.90
16823;DHT22;8528;49.976;11.858;2023-11-19T13:14:04;9.40;99.90
16823;DHT22;8528;49.976;11.858;2023-11-19T13:16:32;9.40;99.90
16823;DHT22;8528;49.976;11.858;2023-11-19T13:19:00;9.40;99.90
16823;DHT22;8528;49.976;11.858;2023-11-19T13:21:27;9.40;99.90
16823;DHT22;8528;49.976;11.858;2023-11-19T13:23:54;9.40;99.90
16823;DHT22;8528;49.976;11.858;2023-11-19T13:26:20;9.50;99.90
16823;DHT22;8528;49.976;11.858;2023-11-19T13:28:48;9.50;99.90
16823;DHT22;8528;49.976;11.858;2023-11-19T13:31:14;9.60;99.90
16823;DHT22;8528;49.976;11.858;2023-11-19T13:33:42;9.60;99.90
16823;DHT22;8528;49.976;11.858;2023-11-19T13:36:09;9.60;99.90
16823;DHT22;8528;49.976;11.858;2023-11-19T13:38:40;9.60;99.90
16823;DHT22;8528;49.976;11.858;2023-11-19T13:41:12;9.60;99.90
16823;DHT22;8528;49.976;11.858;2023-11-19T13:43:39;9.60;99.90
16823;DHT22;8528;49.976;11.858;2023-11-19T13:46:07;9.60;99.90
16823;DHT22;8528;49.976;11.858;2023-11-19T13:48:36;9.60;99.90
16823;DHT22;8528;49.976;11.858;2023-11-19T13:51:04;9.70;99.90
16823;DHT22;8528;49.976;11.858;2023-11-19T13:53:30;9.60;99.90
16823;DHT22;8528;49.976;11.858;2023-11-19T13:55:57;9.60;99.90
16823;DHT22;8528;49.976;11.858;2023-11-19T13:58:24;9.60;99.90
16823;DHT22;8528;49.976;11.858;2023-11-19T14:00:51;9.60;99.90
16823;DHT22;8528;49.976;11.858;2023-11-19T14:03:18;9.50;99.90
16823;DHT22;8528;49.976;11.858;2023-11-19T14:06:14;9.50;99.90
16823;DHT22;8528;49.976;11.858;2023-11-19T14:08:41;9.60;99.90
16823;DHT22;8528;49.976;11.858;2023-11-19T14:11:08;9.50;99.90
16823;DHT22;8528;49.976;11.858;2023-11-19T14:13:35;9.50;99.90
16823;DHT22;8528;49.976;11.858;2023-11-19T14:16:02;9.50;99.90
16823;DHT22;8528;49.976;11.858;2023-11-19T14:18:29;9.50;99.90
16823;DHT22;8528;49.976;11.858;2023-11-19T14:20:55;9.50;99.90
16823;DHT22;8528;49.976;11.858;2023-11-19T14:23:22;9.50;99.90
16823;DHT22;8528;49.976;11.858;2023-11-19T14:25:50;9.50;99.90
16823;DHT22;8528;49.976;11.858;2023-11-19T14:28:17;9.50;99.90
16823;DHT22;8528;49.976;11.858;2023-11-19T14:30:44;9.50;99.90
16823;DHT22;8528;49.976;11.858;2023-11-19T14:33:12;9.50;99.90
16823;DHT22;8528;49.976;11.858;2023-11-19T14:35:39;9.50;99.90
16823;DHT22;8528;49.976;11.858;2023-11-19T14:38:05;9.40;99.90
16823;DHT22;8528;49.976;11.858;2023-11-19T14:40:36;9.40;99.90
16823;DHT22;8528;49.976;11.858;2023-11-19T14:43:06;9.30;99.90
16823;DHT22;8528;49.976;11.858;2023-11-19T14:45:33;9.20;99.90
16823;DHT22;8528;49.976;11.858;2023-11-19T14:48:10;9.10;99.90
16823;DHT22;8528;49.976;11.858;2023-11-19T14:50:37;9.00;99.90
16823;DHT22;8528;49.976;11.858;2023-11-19T14:53:04;8.90;99.90
16823;DHT22;8528;49.976;11.858;2023-11-19T14:55:31;8.90;99.90
16823;DHT22;8528;49.976;11.858;2023-11-19T14:57:58;8.90;99.90
16823;DHT22;8528;49.976;11.858;2023-11-19T15:00:35;8.90;99.90
16823;DHT22;8528;49.976;11.858;2023-11-19T15:03:02;8.90;99.90
16823;DHT22;8528;49.976;11.858;2023-11-19T15:05:29;8.90;99.90
16823;DHT22;8528;49.976;11.858;2023-11-19T15:07:56;8.90;99.90
16823;DHT22;8528;49.976;11.858;2023-11-19T15:10:23;8.90;99.90
16823;DHT22;8528;49.976;11.858;2023-11-19T15:12:52;8.90;99.90
16823;DHT22;8528;49.976;11.858;2023-11-19T15:15:20;8.90;99.90
16823;DHT22;8528;49.976;11.858;2023-11-19T15:17:50;8.90;99.90
16823;DHT22;8528;49.976;11.858;2023-11-19T15:20:17;8.80;99.90
16823;DHT22;8528;49.976;11.858;2023-11-19T15:22:46;8.80;99.90
16823;DHT22;8528;49.976;11.858;2023-11-19T15:25:13;8.70;99.90
16823;DHT22;8528;49.976;11.858;2023-11-19T15:27:40;8.60;99.90
16823;DHT22;8528;49.976;11.858;2023-11-19T15:30:07;8.60;99.90
16823;DHT22;8528;49.976;11.858;2023-11-19T15:32:37;8.60;99.90
16823;DHT22;8528;49.976;11.858;2023-11-19T15:35:04;8.60;99.90
16823;DHT22;8528;49.976;11.858;2023-11-19T15:37:34;8.60;99.90
16823;DHT22;8528;49.976;11.858;2023-11-19T15:40:02;8.70;99.90
16823;DHT22;8528;49.976;11.858;2023-11-19T15:42:30;8.70;99.90
16823;DHT22;8528;49.976;11.858;2023-11-19T15:44:57;8.70;99.90
16823;DHT22;8528;49.976;11.858;2023-11-19T15:47:24;8.80;99.90
16823;DHT22;8528;49.976;11.858;2023-11-19T15:49:51;8.80;99.90
16823;DHT22;8528;49.976;11.858;2023-11-19T15:52:17;8.70;99.90
16823;DHT22;8528;49.976;11.858;2023-11-19T15:54:44;8.70;99.90
16823;DHT22;8528;49.976;11.858;2023-11-19T15:57:14;8.70;99.90
16823;DHT22;8528;49.976;11.858;2023-11-19T15:59:41;8.70;99.90
16823;DHT22;8528;49.976;11.858;2023-11-19T16:02:07;8.60;99.90
16823;DHT22;8528;49.976;11.858;2023-11-19T16:04:34;8.60;99.90